Time;durP1;ratioP1;P1;durP2;ratioP2;P2;SDS_P1;SDS_P2;PMS_P1;PMS_P2;Temp;Humidity;BMP_temperature;BMP_pressure;BME280_temperature;BME280_humidity;BME280_pressure;Samples;Min_cycle;Max_cycle;Signal;HPM_P1;HPM_P2
2024/01/19 00:00:22;;;;;;;18.37;10.97;;;-3.10;99.90;;;;;;5215036;28;20200;-49
2024/01/19 00:02:53;;;;;;;20.63;11.23;;;-3.20;99.90;;;;;;5211776;28;20395;-47
2024/01/19 00:05:24;;;;;;;18.40;10.27;;;-3.20;99.90;;;;;;5212503;28;20497;-47
2024/01/19 00:07:54;;;;;;;15.40;9.07;;;-3.20;99.90;;;;;;5212124;28;20203;-49
2024/01/19 00:10:25;;;;;;;16.23;10.13;;;-3.20;99.90;;;;;;5216855;28;20186;-50
2024/01/19 00:12:56;;;;;;;15.70;9.43;;;-3.20;99.90;;;;;;5215352;28;20942;-50
2024/01/19 00:15:26;;;;;;;18.20;8.60;;;-3.20;99.90;;;;;;5215330;28;20180;-50
2024/01/19 00:17:57;;;;;;;24.30;10.93;;;-3.20;99.90;;;;;;5218855;28;20278;-48
2024/01/19 00:20:27;;;;;;;17.43;9.53;;;-3.30;99.90;;;;;;5215590;28;20206;-49
2024/01/19 00:22:58;;;;;;;19.60;9.40;;;-3.20;99.90;;;;;;5215714;28;20203;-48
2024/01/19 00:25:29;;;;;;;17.80;7.93;;;-3.20;99.90;;;;;;5216990;28;20822;-49
2024/01/19 00:27:59;;;;;;;17.73;9.37;;;-3.20;99.90;;;;;;5220594;28;20207;-49
2024/01/19 00:30:30;;;;;;;20.00;9.70;;;-3.20;99.90;;;;;;5217160;28;20184;-49
2024/01/19 00:33:01;;;;;;;20.50;9.47;;;-3.20;99.90;;;;;;5213586;28;20183;-49
2024/01/19 00:35:31;;;;;;;20.17;9.63;;;-3.20;99.90;;;;;;5213992;28;20204;-49
2024/01/19 00:38:03;;;;;;;12.60;8.47;;;-3.20;99.90;;;;;;5215713;28;20213;-48
2024/01/19 00:40:33;;;;;;;18.03;9.20;;;-3.10;99.90;;;;;;5216244;28;20181;-48
2024/01/19 00:43:04;;;;;;;18.27;8.23;;;-3.10;99.90;;;;;;5217397;28;20467;-47
2024/01/19 00:45:35;;;;;;;28.80;9.00;;;-3.20;99.90;;;;;;5216210;28;20195;-47
2024/01/19 00:48:05;;;;;;;12.97;7.83;;;-3.20;99.90;;;;;;5218963;28;20317;-49
2024/01/19 00:50:36;;;;;;;9.67;8.03;;;-3.10;99.90;;;;;;5215753;28;20175;-47
2024/01/19 00:53:07;;;;;;;11.30;7.50;;;-3.10;99.90;;;;;;5213169;28;20278;-49
2024/01/19 00:55:37;;;;;;;11.40;7.40;;;-3.20;99.90;;;;;;5219289;28;20187;-49
2024/01/19 00:58:10;;;;;;;12.80;7.93;;;-3.20;99.90;;;;;;5217204;28;20207;-47
2024/01/19 01:00:41;;;;;;;13.83;7.30;;;-3.10;99.90;;;;;;5213454;28;20214;-49
2024/01/19 01:03:24;;;;;;;13.60;7.93;;;-3.10;99.90;;;;;;5216162;28;20552;-50
2024/01/19 01:05:59;;;;;;;12.90;7.30;;;-3.00;99.90;;;;;;5211560;28;20178;-47
2024/01/19 01:08:30;;;;;;;9.33;7.27;;;-3.10;99.90;;;;;;5211957;28;20456;-48
2024/01/19 01:11:01;;;;;;;9.50;6.73;;;-3.00;99.90;;;;;;5217774;28;20433;-50
2024/01/19 01:13:32;;;;;;;11.13;6.80;;;-3.00;99.90;;;;;;5214017;28;20230;-50
2024/01/19 01:16:03;;;;;;;15.30;7.37;;;-3.00;99.90;;;;;;5212357;28;20205;-49
2024/01/19 01:18:33;;;;;;;14.67;8.03;;;-3.00;99.90;;;;;;5211839;28;20462;-49
2024/01/19 01:21:05;;;;;;;15.07;7.03;;;-3.00;99.90;;;;;;5214089;28;20199;-48
2024/01/19 01:23:36;;;;;;;10.83;6.40;;;-2.90;99.90;;;;;;5215873;28;20217;-50
2024/01/19 01:26:06;;;;;;;13.40;7.10;;;-3.00;99.90;;;;;;5210229;28;20429;-50
2024/01/19 01:28:37;;;;;;;15.13;7.10;;;-3.00;99.90;;;;;;5215330;28;20666;-48
2024/01/19 01:31:08;;;;;;;14.37;7.83;;;-3.00;99.90;;;;;;5218892;28;20190;-48
2024/01/19 01:33:39;;;;;;;10.97;7.70;;;-3.00;99.90;;;;;;5215859;28;20194;-47
2024/01/19 01:36:10;;;;;;;9.07;7.30;;;-3.00;99.90;;;;;;5214689;28;20742;-49
2024/01/19 01:38:40;;;;;;;10.53;6.57;;;-3.00;99.90;;;;;;5213522;28;20294;-48
2024/01/19 01:41:11;;;;;;;11.77;7.13;;;-3.00;99.90;;;;;;5213964;28;20267;-49
2024/01/19 01:43:42;;;;;;;10.90;7.17;;;-3.00;99.90;;;;;;5213163;28;20172;-51
2024/01/19 01:46:12;;;;;;;7.83;6.83;;;-3.10;99.90;;;;;;5212524;28;20221;-50
2024/01/19 01:48:43;;;;;;;10.50;6.00;;;-3.10;99.90;;;;;;5214489;28;20213;-48
2024/01/19 01:51:14;;;;;;;11.43;6.83;;;-3.00;99.90;;;;;;5216490;28;20261;-48
2024/01/19 01:53:45;;;;;;;12.30;7.10;;;-3.10;99.90;;;;;;5216125;28;20302;-48
2024/01/19 01:56:16;;;;;;;8.40;6.90;;;-3.10;99.90;;;;;;5211434;28;20459;-49
2024/01/19 01:58:47;;;;;;;14.60;7.17;;;-3.10;99.90;;;;;;5215513;28;20261;-47
2024/01/19 02:01:17;;;;;;;11.80;7.13;;;-3.00;99.90;;;;;;5218460;28;20800;-50
2024/01/19 02:03:49;;;;;;;14.83;7.67;;;-3.00;99.90;;;;;;5215855;28;20179;-46
2024/01/19 02:06:20;;;;;;;13.17;8.17;;;-2.90;99.90;;;;;;5218274;28;20810;-47
2024/01/19 02:08:51;;;;;;;14.47;7.30;;;-3.00;99.90;;;;;;5213607;28;20495;-48
2024/01/19 02:11:22;;;;;;;15.70;8.13;;;-3.00;99.90;;;;;;5214528;28;20187;-48
2024/01/19 02:13:52;;;;;;;14.33;7.70;;;-3.00;99.90;;;;;;5215309;28;20222;-49
2024/01/19 02:16:23;;;;;;;12.60;8.27;;;-3.10;99.90;;;;;;5216891;28;20262;-48
2024/01/19 02:18:54;;;;;;;10.63;7.13;;;-3.10;99.90;;;;;;5215910;28;20282;-48
2024/01/19 02:21:25;;;;;;;9.13;6.70;;;-3.10;99.90;;;;;;5213203;28;20188;-51
2024/01/19 02:24:04;;;;;;;11.17;7.90;;;-3.10;99.90;;;;;;5216403;28;20449;-47
2024/01/19 02:26:35;;;;;;;12.97;7.87;;;-3.10;99.90;;;;;;5216745;28;20183;-51
2024/01/19 02:29:06;;;;;;;15.43;7.87;;;-3.00;99.90;;;;;;5217772;28;20483;-49
2024/01/19 02:31:37;;;;;;;12.53;8.07;;;-3.00;99.90;;;;;;5211774;28;20436;-49
2024/01/19 02:34:07;;;;;;;10.10;7.60;;;-2.90;99.90;;;;;;5210417;28;20953;-49
2024/01/19 02:36:38;;;;;;;12.90;8.10;;;-3.00;99.90;;;;;;5211471;28;20309;-48
2024/01/19 02:39:09;;;;;;;20.93;8.90;;;-3.10;99.90;;;;;;5210672;28;20222;-48
2024/01/19 02:41:40;;;;;;;18.80;8.00;;;-3.00;99.90;;;;;;5212517;28;20229;-48
2024/01/19 02:44:12;;;;;;;20.47;9.03;;;-3.00;99.90;;;;;;5214871;28;20509;-49
2024/01/19 02:46:42;;;;;;;10.50;7.37;;;-3.00;99.90;;;;;;5211931;28;20422;-51
2024/01/19 02:49:13;;;;;;;9.77;7.83;;;-3.00;99.90;;;;;;5209698;28;20465;-49
2024/01/19 02:51:44;;;;;;;13.87;7.63;;;-3.10;99.90;;;;;;5211134;28;20199;-48
2024/01/19 02:54:14;;;;;;;14.30;7.70;;;-3.00;99.90;;;;;;5214058;28;20291;-48
2024/01/19 02:56:45;;;;;;;11.53;7.47;;;-3.00;99.90;;;;;;5213920;28;20246;-49
2024/01/19 02:59:16;;;;;;;8.07;6.20;;;-3.00;99.90;;;;;;5212749;28;20183;-48
2024/01/19 03:01:46;;;;;;;13.50;6.00;;;-3.00;99.90;;;;;;5213207;28;20667;-48
2024/01/19 03:04:17;;;;;;;11.33;7.50;;;-3.10;99.90;;;;;;5216598;28;20943;-51
2024/01/19 03:06:47;;;;;;;11.03;6.70;;;-3.00;99.90;;;;;;5211063;28;20179;-48
2024/01/19 03:09:18;;;;;;;10.00;6.30;;;-3.00;99.90;;;;;;5211085;28;20589;-50
2024/01/19 03:11:49;;;;;;;10.40;6.00;;;-2.80;99.90;;;;;;5212852;28;20251;-49
2024/01/19 03:14:19;;;;;;;16.50;5.90;;;-2.80;99.90;;;;;;5214593;28;20703;-50
2024/01/19 03:16:51;;;;;;;9.77;6.03;;;-2.90;99.90;;;;;;5220912;28;20191;-48
2024/01/19 03:19:21;;;;;;;13.13;6.73;;;-2.90;99.90;;;;;;5212552;28;20213;-50
2024/01/19 03:21:52;;;;;;;9.57;5.30;;;-2.80;99.90;;;;;;5213140;28;20548;-50
2024/01/19 03:24:23;;;;;;;7.37;5.23;;;-2.80;99.90;;;;;;5212007;28;20192;-48
2024/01/19 03:26:53;;;;;;;10.13;4.53;;;-2.90;99.90;;;;;;5211259;28;20569;-50
2024/01/19 03:29:24;;;;;;;13.27;5.97;;;-2.80;99.90;;;;;;5214603;28;20226;-49
2024/01/19 03:31:54;;;;;;;6.20;4.93;;;-2.80;99.90;;;;;;5213609;28;20191;-49
2024/01/19 03:34:25;;;;;;;6.30;4.23;;;-2.80;99.90;;;;;;5214731;28;20183;-49
2024/01/19 03:36:56;;;;;;;8.97;4.87;;;-2.80;99.90;;;;;;5211810;28;20189;-50
2024/01/19 03:39:27;;;;;;;7.47;4.70;;;-2.80;99.90;;;;;;5212874;28;20427;-50
2024/01/19 03:41:57;;;;;;;6.43;4.33;;;-2.80;99.90;;;;;;5212951;28;20195;-48
2024/01/19 03:44:28;;;;;;;8.50;5.73;;;-2.90;99.90;;;;;;5213768;28;20187;-49
2024/01/19 03:47:02;;;;;;;15.03;4.40;;;-2.80;99.90;;;;;;5218159;28;20183;-49
2024/01/19 03:49:32;;;;;;;11.20;5.07;;;-2.80;99.90;;;;;;5211936;28;20187;-50
2024/01/19 03:52:07;;;;;;;7.53;4.00;;;-2.80;99.90;;;;;;5216029;28;20953;-48
2024/01/19 03:54:39;;;;;;;15.53;5.00;;;-2.80;99.90;;;;;;5216981;28;20182;-48
2024/01/19 03:57:10;;;;;;;4.87;4.37;;;-2.70;99.90;;;;;;5216684;28;20457;-48
2024/01/19 03:59:41;;;;;;;9.03;4.43;;;-2.80;99.90;;;;;;5214923;28;20436;-47
2024/01/19 04:02:12;;;;;;;8.20;4.93;;;-2.70;99.90;;;;;;5221153;28;20572;-50
2024/01/19 04:04:43;;;;;;;6.80;3.93;;;-2.70;99.90;;;;;;5217951;28;20428;-48
2024/01/19 04:07:15;;;;;;;7.10;4.10;;;-2.60;99.90;;;;;;5216695;28;20638;-48
2024/01/19 04:09:45;;;;;;;10.23;4.43;;;-2.50;99.90;;;;;;5198304;28;20440;-49
2024/01/19 04:12:17;;;;;;;5.07;4.13;;;-2.40;99.90;;;;;;5213800;28;20828;-49
2024/01/19 04:14:47;;;;;;;11.20;4.20;;;-2.30;99.90;;;;;;5216712;28;20237;-48
2024/01/19 04:17:18;;;;;;;5.97;4.27;;;-2.30;99.90;;;;;;5218123;28;20828;-50
2024/01/19 04:19:49;;;;;;;7.23;4.80;;;-2.30;99.90;;;;;;5216319;28;20179;-48
2024/01/19 04:22:19;;;;;;;9.00;3.63;;;-2.30;99.90;;;;;;5201992;28;20214;-48
2024/01/19 04:24:50;;;;;;;7.93;4.77;;;-2.30;99.90;;;;;;5210738;28;20300;-47
2024/01/19 04:27:21;;;;;;;6.60;4.60;;;-2.30;99.90;;;;;;5219224;28;20222;-49
2024/01/19 04:29:51;;;;;;;10.23;4.00;;;-2.40;99.90;;;;;;5212609;28;20270;-48
2024/01/19 04:32:22;;;;;;;5.57;4.10;;;-2.40;99.90;;;;;;5216073;28;20175;-50
2024/01/19 04:34:52;;;;;;;7.00;4.07;;;-2.40;99.90;;;;;;5217262;28;20704;-52
2024/01/19 04:37:23;;;;;;;7.33;4.80;;;-2.40;99.90;;;;;;5219906;28;20198;-50
2024/01/19 04:39:54;;;;;;;7.73;3.77;;;-2.30;99.90;;;;;;5210995;28;20616;-49
2024/01/19 04:42:24;;;;;;;6.10;3.67;;;-2.30;99.90;;;;;;5217071;28;20730;-50
2024/01/19 04:44:55;;;;;;;4.37;3.87;;;-2.30;99.90;;;;;;5214438;28;20193;-49
2024/01/19 04:47:26;;;;;;;5.37;3.60;;;-2.30;99.90;;;;;;5211343;28;20222;-49
2024/01/19 04:49:56;;;;;;;5.90;4.70;;;-2.20;99.90;;;;;;5212177;28;20187;-53
2024/01/19 04:52:27;;;;;;;11.97;4.83;;;-2.20;99.90;;;;;;5198729;28;20207;-50
2024/01/19 04:54:57;;;;;;;12.67;4.20;;;-2.20;99.90;;;;;;5216996;28;20644;-50
2024/01/19 04:57:28;;;;;;;6.93;4.33;;;-2.20;99.90;;;;;;5215447;28;20241;-49
2024/01/19 04:59:59;;;;;;;11.60;4.90;;;-2.10;99.90;;;;;;5215334;28;20591;-49
2024/01/19 05:02:32;;;;;;;4.10;3.70;;;-2.20;99.90;;;;;;5212212;28;20199;-50
2024/01/19 05:05:03;;;;;;;5.70;3.20;;;-2.20;99.90;;;;;;5216790;28;20609;-51
2024/01/19 05:07:34;;;;;;;5.20;3.17;;;-2.20;99.90;;;;;;5213647;28;20450;-51
2024/01/19 05:10:05;;;;;;;6.83;3.00;;;-2.20;99.90;;;;;;5216375;28;21287;-48
2024/01/19 05:12:36;;;;;;;10.33;3.77;;;-2.30;99.90;;;;;;5213783;28;20731;-50
2024/01/19 05:15:07;;;;;;;6.90;3.20;;;-2.20;99.90;;;;;;5215048;28;20445;-49
2024/01/19 05:17:38;;;;;;;5.43;3.63;;;-2.20;99.90;;;;;;5212589;28;20269;-49
2024/01/19 05:20:09;;;;;;;3.50;2.70;;;-2.20;99.90;;;;;;5212905;28;20445;-50
2024/01/19 05:22:40;;;;;;;14.00;3.50;;;-2.10;99.90;;;;;;5213623;28;20210;-52
2024/01/19 05:25:11;;;;;;;14.97;2.73;;;-2.20;99.90;;;;;;5208605;28;20443;-50
2024/01/19 05:27:41;;;;;;;5.03;2.67;;;-2.20;99.90;;;;;;5211230;28;20204;-50
2024/01/19 05:30:13;;;;;;;10.93;3.63;;;-2.20;99.90;;;;;;5214064;28;20187;-50
2024/01/19 05:32:44;;;;;;;6.30;2.57;;;-2.30;99.90;;;;;;5215192;28;20594;-49
2024/01/19 05:35:15;;;;;;;4.97;2.87;;;-2.20;99.90;;;;;;5213426;28;20444;-52
2024/01/19 05:37:45;;;;;;;5.50;2.97;;;-2.20;99.90;;;;;;5216604;28;20302;-48
2024/01/19 05:40:16;;;;;;;4.13;3.10;;;-2.20;99.90;;;;;;5214965;28;20519;-50
2024/01/19 05:42:47;;;;;;;2.47;2.27;;;-2.10;99.90;;;;;;5214340;28;20296;-49
2024/01/19 05:45:17;;;;;;;5.70;2.97;;;-2.10;99.90;;;;;;5216824;28;20666;-50
2024/01/19 05:47:48;;;;;;;2.83;2.47;;;-2.10;99.90;;;;;;5215905;28;20203;-49
2024/01/19 05:50:19;;;;;;;2.23;2.03;;;-2.10;99.90;;;;;;5216491;28;20440;-49
2024/01/19 05:52:49;;;;;;;2.57;2.20;;;-1.90;99.90;;;;;;5212183;28;20195;-51
2024/01/19 05:55:20;;;;;;;7.07;2.10;;;-2.00;99.90;;;;;;5213575;28;20542;-51
2024/01/19 05:57:51;;;;;;;4.90;3.00;;;-2.10;99.90;;;;;;5207790;28;20234;-49
2024/01/19 06:00:21;;;;;;;4.67;2.17;;;-2.10;99.90;;;;;;5215801;28;20470;-50
2024/01/19 06:02:52;;;;;;;4.73;2.80;;;-2.20;99.90;;;;;;5217086;28;20203;-50
2024/01/19 06:05:22;;;;;;;3.20;2.40;;;-2.10;99.90;;;;;;5217885;28;20592;-49
2024/01/19 06:07:53;;;;;;;3.50;2.77;;;-2.20;99.90;;;;;;5223620;28;20237;-49
2024/01/19 06:10:24;;;;;;;4.57;3.17;;;-2.20;99.90;;;;;;5220063;28;20605;-50
2024/01/19 06:12:54;;;;;;;6.10;2.63;;;-2.20;99.90;;;;;;5221649;28;20178;-49
2024/01/19 06:15:25;;;;;;;10.90;2.27;;;-2.10;99.90;;;;;;5214024;28;20502;-49
2024/01/19 06:17:56;;;;;;;6.60;3.30;;;-2.10;99.90;;;;;;5219543;28;20225;-50
2024/01/19 06:20:26;;;;;;;4.20;2.87;;;-2.10;99.90;;;;;;5221363;28;20639;-49
2024/01/19 06:22:57;;;;;;;2.47;2.27;;;-2.10;99.90;;;;;;5221022;28;20237;-50
2024/01/19 06:25:27;;;;;;;4.93;2.70;;;-2.10;99.90;;;;;;5213472;28;20183;-49
2024/01/19 06:27:59;;;;;;;8.07;2.77;;;-2.20;99.90;;;;;;5202544;28;20638;-49
2024/01/19 06:30:29;;;;;;;3.20;2.13;;;-2.10;99.90;;;;;;5217114;28;20294;-48
2024/01/19 06:33:01;;;;;;;4.00;2.30;;;-2.20;99.90;;;;;;5221125;28;20430;-50
2024/01/19 06:35:32;;;;;;;4.70;2.30;;;-2.10;99.90;;;;;;5220846;28;20187;-51
2024/01/19 06:38:04;;;;;;;3.57;2.00;;;-2.10;99.90;;;;;;5215657;28;20458;-49
2024/01/19 06:40:35;;;;;;;4.27;2.20;;;-2.00;99.90;;;;;;5220083;28;20506;-49
2024/01/19 06:43:05;;;;;;;5.90;2.70;;;-2.00;99.90;;;;;;5218038;28;20454;-50
2024/01/19 06:45:36;;;;;;;3.40;2.40;;;-1.90;99.90;;;;;;5218942;28;20183;-50
2024/01/19 06:48:06;;;;;;;2.43;2.30;;;-1.80;99.90;;;;;;5220592;28;20248;-49
2024/01/19 06:50:37;;;;;;;5.17;2.13;;;-1.80;99.90;;;;;;5220117;28;20241;-51
2024/01/19 06:53:09;;;;;;;3.33;2.30;;;-1.70;99.90;;;;;;5220070;28;20202;-48
2024/01/19 06:55:40;;;;;;;5.70;2.20;;;-1.60;99.90;;;;;;5221507;28;20182;-51
2024/01/19 06:58:10;;;;;;;8.90;3.00;;;-1.70;99.90;;;;;;5216659;28;20465;-50
2024/01/19 07:00:41;;;;;;;2.37;1.90;;;-1.60;99.90;;;;;;5235143;28;20297;-49
2024/01/19 07:03:11;;;;;;;5.97;2.50;;;-1.70;99.90;;;;;;5220403;28;20574;-50
2024/01/19 07:05:42;;;;;;;8.50;2.70;;;-1.80;99.90;;;;;;5217936;28;20206;-49
2024/01/19 07:08:13;;;;;;;4.23;2.03;;;-1.80;99.90;;;;;;5220880;28;20206;-49
2024/01/19 07:10:43;;;;;;;8.90;2.83;;;-1.80;99.90;;;;;;5219383;28;20225;-48
2024/01/19 07:13:14;;;;;;;3.03;2.57;;;-1.80;99.90;;;;;;5221143;28;20183;-49
2024/01/19 07:15:45;;;;;;;4.93;3.63;;;-1.70;99.90;;;;;;5223186;28;20189;-49
2024/01/19 07:18:15;;;;;;;5.00;2.63;;;-1.50;99.90;;;;;;5213517;28;20728;-49
2024/01/19 07:20:46;;;;;;;2.60;2.47;;;-1.60;99.90;;;;;;5218044;28;20262;-48
2024/01/19 07:23:16;;;;;;;13.20;4.23;;;-1.50;99.90;;;;;;5216907;28;20210;-48
2024/01/19 07:25:47;;;;;;;5.23;3.27;;;-1.50;99.90;;;;;;5216852;28;20187;-50
2024/01/19 07:28:18;;;;;;;7.50;3.30;;;-1.50;99.90;;;;;;5213556;28;20199;-51
2024/01/19 07:30:48;;;;;;;5.80;2.70;;;-1.50;99.90;;;;;;5194621;28;20176;-49
2024/01/19 07:33:19;;;;;;;10.50;4.13;;;-1.30;99.90;;;;;;5214190;28;20659;-50
2024/01/19 07:35:50;;;;;;;7.40;3.10;;;-1.20;99.90;;;;;;5221506;28;20190;-49
2024/01/19 07:38:20;;;;;;;3.67;3.40;;;-1.20;99.90;;;;;;5216935;28;20219;-51
2024/01/19 07:40:51;;;;;;;4.80;3.10;;;-1.20;99.90;;;;;;5219813;28;20210;-52
2024/01/19 07:43:22;;;;;;;9.90;3.53;;;-1.10;99.90;;;;;;5230121;28;20728;-50
2024/01/19 07:45:52;;;;;;;6.67;4.17;;;-1.00;99.90;;;;;;5212898;28;20176;-52
2024/01/19 07:48:24;;;;;;;5.73;3.27;;;-1.00;99.90;;;;;;5204435;28;20638;-51
2024/01/19 07:50:54;;;;;;;4.60;3.50;;;-0.90;99.90;;;;;;5213578;28;20199;-50
2024/01/19 07:53:25;;;;;;;12.60;3.80;;;-1.00;99.90;;;;;;5204084;28;20977;-50
2024/01/19 07:55:56;;;;;;;4.87;3.50;;;-0.90;99.90;;;;;;5210973;28;20241;-50
2024/01/19 07:58:27;;;;;;;8.00;3.73;;;-0.90;99.90;;;;;;5217430;28;20214;-51
2024/01/19 08:00:58;;;;;;;7.60;3.50;;;-0.80;99.90;;;;;;5211443;28;20175;-52
2024/01/19 08:03:29;;;;;;;5.57;3.80;;;-0.70;99.90;;;;;;5212998;28;20461;-49
2024/01/19 08:05:59;;;;;;;4.60;3.87;;;-0.70;99.90;;;;;;5211521;28;20184;-51
2024/01/19 08:08:30;;;;;;;3.77;3.47;;;-0.70;99.90;;;;;;5216002;28;20667;-50
2024/01/19 08:11:01;;;;;;;6.43;3.40;;;-0.70;99.90;;;;;;5219740;28;20202;-48
2024/01/19 08:13:31;;;;;;;4.60;3.63;;;-0.70;99.90;;;;;;5218717;28;20198;-51
2024/01/19 08:16:02;;;;;;;3.80;3.50;;;-0.60;99.90;;;;;;5214922;28;20212;-53
2024/01/19 08:18:34;;;;;;;5.30;2.90;;;-0.60;99.90;;;;;;5234700;28;20220;-52
2024/01/19 08:21:05;;;;;;;8.33;5.97;;;-0.60;99.90;;;;;;5223379;28;20543;-48
2024/01/19 08:23:35;;;;;;;4.23;3.73;;;-0.70;99.90;;;;;;5203742;28;20566;-52
2024/01/19 08:26:07;;;;;;;6.90;3.70;;;-0.60;99.90;;;;;;5215780;28;20905;-51
2024/01/19 08:28:37;;;;;;;6.80;4.00;;;-0.60;99.90;;;;;;5213151;28;20205;-48
2024/01/19 08:31:11;;;;;;;8.13;3.50;;;-0.50;99.90;;;;;;5222444;28;20880;-49
2024/01/19 08:33:42;;;;;;;10.07;4.40;;;-0.50;99.90;;;;;;5220421;28;20300;-52
2024/01/19 08:36:12;;;;;;;6.47;3.60;;;-0.50;99.90;;;;;;5222774;28;21090;-50
2024/01/19 08:38:43;;;;;;;6.90;4.00;;;-0.50;99.90;;;;;;5220267;28;20213;-49
2024/01/19 08:41:14;;;;;;;6.07;3.87;;;-0.40;99.90;;;;;;5217721;28;20191;-49
2024/01/19 08:43:45;;;;;;;5.20;4.10;;;-0.30;99.90;;;;;;5219365;28;20213;-50
2024/01/19 08:46:15;;;;;;;3.63;3.30;;;-0.40;99.90;;;;;;5206484;28;20192;-53
2024/01/19 08:48:47;;;;;;;11.30;4.13;;;-0.30;99.90;;;;;;5217395;28;20237;-50
2024/01/19 08:51:20;;;;;;;5.77;4.10;;;-0.20;99.90;;;;;;5225760;28;20181;-54
2024/01/19 08:53:50;;;;;;;4.10;3.57;;;-0.20;99.90;;;;;;5197981;28;20441;-52
2024/01/19 08:56:21;;;;;;;7.33;4.07;;;-0.10;99.90;;;;;;5222531;28;20517;-53
2024/01/19 08:58:52;;;;;;;8.33;4.47;;;0.00;99.90;;;;;;5218340;28;20205;-51
2024/01/19 09:01:22;;;;;;;4.50;4.20;;;0.00;99.90;;;;;;5221976;28;20208;-51
2024/01/19 09:03:53;;;;;;;9.53;4.20;;;0.10;99.90;;;;;;5238632;28;20210;-48
2024/01/19 09:06:24;;;;;;;15.17;5.80;;;0.00;99.90;;;;;;5217698;28;20181;-50
2024/01/19 09:08:57;;;;;;;10.03;5.30;;;-0.10;99.90;;;;;;5214327;28;20271;-50
2024/01/19 09:11:29;;;;;;;12.30;5.30;;;0.00;99.90;;;;;;5218734;28;20351;-50
2024/01/19 09:13:59;;;;;;;6.20;4.40;;;0.00;99.90;;;;;;5218862;28;20437;-52
2024/01/19 09:16:30;;;;;;;7.70;4.60;;;0.00;99.90;;;;;;5220374;28;20769;-49
2024/01/19 09:19:01;;;;;;;15.70;5.97;;;0.00;99.90;;;;;;5219505;28;20465;-49
2024/01/19 09:21:31;;;;;;;6.10;4.33;;;0.10;99.90;;;;;;5214983;28;20187;-54
2024/01/19 09:24:02;;;;;;;5.00;4.57;;;0.10;99.90;;;;;;5215856;28;20196;-50
2024/01/19 09:26:33;;;;;;;6.77;4.53;;;0.10;99.90;;;;;;5217291;28;20178;-51
2024/01/19 09:29:04;;;;;;;5.77;4.97;;;0.20;99.90;;;;;;5216309;28;20676;-48
2024/01/19 09:31:42;;;;;;;11.23;5.10;;;0.30;99.90;;;;;;5218379;28;20311;-48
2024/01/19 09:34:14;;;;;;;12.30;6.00;;;0.20;99.90;;;;;;5217137;28;20432;-50
2024/01/19 09:36:44;;;;;;;9.03;5.60;;;0.20;99.90;;;;;;5212715;28;20456;-49
2024/01/19 09:39:15;;;;;;;4.73;4.37;;;0.30;99.90;;;;;;5224234;28;20516;-50
2024/01/19 09:42:02;;;;;;;14.03;4.80;;;0.20;99.90;;;;;;5217446;28;20380;-52
2024/01/19 09:44:36;;;;;;;10.23;6.00;;;0.30;99.90;;;;;;5213434;28;20198;-50
2024/01/19 09:47:20;;;;;;;8.63;4.63;;;0.40;99.90;;;;;;5218892;28;20459;-52
2024/01/19 09:49:50;;;;;;;21.60;4.93;;;0.40;99.90;;;;;;5217143;28;20422;-50
2024/01/19 09:52:42;;;;;;;9.00;4.97;;;0.40;99.90;;;;;;5219038;28;20948;-51
2024/01/19 09:55:14;;;;;;;7.60;4.40;;;0.50;99.90;;;;;;5219670;28;20690;-48
2024/01/19 09:57:48;;;;;;;11.93;4.83;;;0.50;99.90;;;;;;5215449;28;20510;-50
2024/01/19 10:00:19;;;;;;;14.70;6.33;;;0.60;99.90;;;;;;5213995;28;20430;-51
2024/01/19 10:02:52;;;;;;;11.20;5.13;;;0.60;99.90;;;;;;5228849;28;20466;-48
2024/01/19 10:05:23;;;;;;;12.37;5.43;;;0.70;99.90;;;;;;5217756;28;20448;-49
2024/01/19 10:07:55;;;;;;;6.70;5.33;;;0.60;99.90;;;;;;5216502;28;20598;-50
2024/01/19 10:10:26;;;;;;;5.70;4.83;;;0.70;99.90;;;;;;5215700;28;20498;-49
2024/01/19 10:12:56;;;;;;;13.03;4.87;;;0.60;99.90;;;;;;5215601;28;20448;-52
2024/01/19 10:15:27;;;;;;;7.30;5.37;;;0.80;99.90;;;;;;5215679;28;20655;-49
2024/01/19 10:18:00;;;;;;;14.27;5.90;;;0.90;99.90;;;;;;5185600;22;20688;-51
2024/01/19 10:20:32;;;;;;;10.37;6.17;;;0.90;99.90;;;;;;5151420;28;20421;-52
2024/01/19 10:23:23;;;;;;;6.83;5.43;;;0.90;99.90;;;;;;5156490;28;20463;-48
2024/01/19 10:26:13;;;;;;;7.50;4.50;;;1.10;99.90;;;;;;5131886;28;20432;-54
2024/01/19 10:28:44;;;;;;;12.73;7.30;;;1.10;99.90;;;;;;5153327;28;20448;-52
2024/01/19 10:31:22;;;;;;;17.63;5.80;;;1.10;99.90;;;;;;5159689;28;20440;-50
2024/01/19 10:33:56;;;;;;;9.93;5.80;;;1.20;99.90;;;;;;5154224;28;20275;-50
2024/01/19 10:36:37;;;;;;;16.30;6.27;;;1.20;99.90;;;;;;5149823;28;21079;-52
2024/01/19 10:39:18;;;;;;;8.27;5.37;;;1.20;99.90;;;;;;5154780;28;20959;-50
2024/01/19 10:41:51;;;;;;;12.53;5.70;;;1.30;99.90;;;;;;5149278;28;20484;-52
2024/01/19 10:44:23;;;;;;;13.73;7.13;;;1.40;99.90;;;;;;5152290;28;20464;-52
2024/01/19 10:46:56;;;;;;;15.33;7.70;;;1.50;99.90;;;;;;5150920;28;20431;-50
2024/01/19 10:49:27;;;;;;;13.80;8.43;;;1.50;99.90;;;;;;5149978;28;20442;-51
2024/01/19 10:51:57;;;;;;;18.97;5.87;;;1.50;99.90;;;;;;5159273;28;20533;-49
2024/01/19 10:54:28;;;;;;;11.17;4.93;;;1.60;99.90;;;;;;5156174;28;20189;-50
2024/01/19 10:57:08;;;;;;;6.60;4.80;;;1.60;99.90;;;;;;5157216;28;20680;-50
2024/01/19 10:59:39;;;;;;;6.20;5.17;;;1.60;99.90;;;;;;5169310;28;20228;-50
2024/01/19 11:02:10;;;;;;;10.10;5.53;;;1.70;99.90;;;;;;5158009;28;20561;-51
2024/01/19 11:04:43;;;;;;;13.07;6.07;;;1.70;99.90;;;;;;5151172;28;20220;-51
2024/01/19 11:07:13;;;;;;;7.47;4.40;;;1.70;99.90;;;;;;5148597;28;20712;-53
2024/01/19 11:09:44;;;;;;;6.73;5.53;;;1.80;99.90;;;;;;5152330;28;20446;-49
2024/01/19 11:12:18;;;;;;;10.30;6.37;;;1.90;99.90;;;;;;5153950;28;20192;-52
2024/01/19 11:14:51;;;;;;;6.63;4.90;;;1.90;99.90;;;;;;5152489;28;20205;-51
2024/01/19 11:17:22;;;;;;;12.30;5.90;;;1.90;99.90;;;;;;5154122;28;20488;-50
2024/01/19 11:19:53;;;;;;;6.93;4.70;;;2.10;99.90;;;;;;5150309;28;20440;-52
2024/01/19 11:22:24;;;;;;;7.47;4.97;;;2.00;99.90;;;;;;5153885;28;20483;-50
2024/01/19 11:25:07;;;;;;;5.73;5.17;;;2.00;99.90;;;;;;5238145;28;20188;-50
2024/01/19 11:27:51;;;;;;;8.87;5.50;;;2.00;99.90;;;;;;5157764;28;20443;-51
2024/01/19 11:30:40;;;;;;;13.80;7.00;;;1.90;99.90;;;;;;5153744;28;20447;-49
2024/01/19 11:33:18;;;;;;;13.93;5.97;;;1.80;99.90;;;;;;5154186;28;20448;-50
2024/01/19 11:35:48;;;;;;;8.60;5.00;;;1.90;99.90;;;;;;5155107;28;20811;-51
2024/01/19 11:38:44;;;;;;;9.27;4.50;;;1.80;99.90;;;;;;5151285;28;20465;-49
2024/01/19 11:41:35;;;;;;;12.23;4.30;;;1.90;99.90;;;;;;5147891;28;20578;-52
2024/01/19 11:44:09;;;;;;;6.40;4.60;;;1.90;99.90;;;;;;5152127;28;20479;-50
2024/01/19 11:46:42;;;;;;;8.00;4.90;;;2.00;99.90;;;;;;5155869;28;20578;-51
2024/01/19 11:49:38;;;;;;;11.73;4.80;;;2.10;99.90;;;;;;5152512;28;20507;-52
2024/01/19 11:52:09;;;;;;;11.83;4.73;;;2.10;99.90;;;;;;5156279;28;20441;-50
2024/01/19 11:54:42;;;;;;;9.00;4.10;;;2.10;99.90;;;;;;5153028;28;20505;-52
2024/01/19 11:57:16;;;;;;;9.33;4.10;;;2.00;99.90;;;;;;5232832;28;20208;-51
2024/01/19 11:59:47;;;;;;;9.27;4.00;;;2.10;99.90;;;;;;5139554;28;20898;-50
2024/01/19 12:02:27;;;;;;;12.30;4.63;;;2.10;99.90;;;;;;5153514;28;20479;-50
2024/01/19 12:05:00;;;;;;;6.37;3.33;;;2.20;99.90;;;;;;5159522;28;20436;-49
2024/01/19 12:07:30;;;;;;;4.70;3.70;;;2.20;99.90;;;;;;5154572;28;20473;-51
2024/01/19 12:10:09;;;;;;;9.60;4.73;;;2.30;99.90;;;;;;5158221;28;21032;-50
2024/01/19 12:12:40;;;;;;;11.07;4.30;;;2.20;99.90;;;;;;5156037;28;20193;-50
2024/01/19 12:15:14;;;;;;;14.33;7.33;;;2.30;99.90;;;;;;5156574;28;21093;-50
2024/01/19 12:17:44;;;;;;;10.13;4.40;;;2.20;99.90;;;;;;5160676;28;20295;-51
2024/01/19 12:20:18;;;;;;;20.20;9.60;;;2.10;99.90;;;;;;5159184;28;20607;-51
2024/01/19 12:22:53;;;;;;;9.57;5.40;;;2.10;99.90;;;;;;5157022;28;20193;-49
2024/01/19 12:25:25;;;;;;;8.10;4.70;;;2.20;99.90;;;;;;5153265;28;20590;-48
2024/01/19 12:28:06;;;;;;;6.30;4.30;;;2.10;99.90;;;;;;5161361;28;20441;-50
2024/01/19 12:30:38;;;;;;;6.47;4.37;;;2.10;99.90;;;;;;5158404;28;20424;-51
2024/01/19 12:33:16;;;;;;;10.70;4.87;;;2.10;99.90;;;;;;5154000;28;20479;-50
2024/01/19 12:35:47;;;;;;;10.70;4.47;;;2.10;99.90;;;;;;5153617;28;20436;-50
2024/01/19 12:38:17;;;;;;;5.00;4.10;;;2.10;99.90;;;;;;5155200;28;20476;-50
2024/01/19 12:40:48;;;;;;;11.83;4.77;;;2.10;99.90;;;;;;5158056;28;20649;-50
2024/01/19 12:43:18;;;;;;;13.10;5.13;;;2.10;99.90;;;;;;5155723;28;20548;-50
2024/01/19 12:45:58;;;;;;;12.53;4.73;;;2.10;99.90;;;;;;5157728;28;20722;-50
2024/01/19 12:48:29;;;;;;;10.43;4.07;;;2.00;99.90;;;;;;5157661;28;20318;-51
2024/01/19 12:51:07;;;;;;;9.00;4.30;;;2.10;99.90;;;;;;5158827;28;20477;-50
2024/01/19 12:53:37;;;;;;;4.87;3.90;;;2.10;99.90;;;;;;5158268;28;20546;-50
2024/01/19 12:56:27;;;;;;;8.33;4.27;;;2.10;99.90;;;;;;5239816;28;20440;-50
2024/01/19 12:59:08;;;;;;;13.90;4.03;;;2.00;99.90;;;;;;5152248;28;20262;-50
2024/01/19 13:01:43;;;;;;;6.73;3.87;;;2.20;99.90;;;;;;5157628;28;20448;-51
2024/01/19 13:04:16;;;;;;;6.07;3.30;;;2.30;99.90;;;;;;5155789;28;20984;-51
2024/01/19 13:06:47;;;;;;;10.47;4.10;;;2.30;99.90;;;;;;5154672;28;20428;-50
2024/01/19 13:09:18;;;;;;;15.07;4.57;;;2.40;99.90;;;;;;5154737;28;20436;-50